createdAt,value
2023-05-15T00:00:24.486Z,16.19
2023-05-15T00:02:51.183Z,16.12
2023-05-15T00:05:17.736Z,16.07
2023-05-15T00:07:44.488Z,16.06
2023-05-15T00:10:10.964Z,15.98
2023-05-15T00:12:37.413Z,16.03
2023-05-15T00:15:04.162Z,16.00
2023-05-15T00:17:30.754Z,15.93
2023-05-15T00:19:59.088Z,15.83
2023-05-15T00:22:26.181Z,15.86
2023-05-15T00:24:53.050Z,15.86
2023-05-15T00:27:19.513Z,15.88
2023-05-15T00:29:46.012Z,15.83
2023-05-15T00:32:12.507Z,15.79
2023-05-15T00:34:39.284Z,15.82
2023-05-15T00:37:05.897Z,15.77
2023-05-15T00:39:32.379Z,15.77
2023-05-15T00:42:02.092Z,15.80
2023-05-15T00:44:31.110Z,15.79
2023-05-15T00:46:59.395Z,15.74
2023-05-15T00:49:29.595Z,15.74
2023-05-15T00:52:02.031Z,15.65
2023-05-15T00:54:28.579Z,15.73
2023-05-15T00:56:59.413Z,15.76
2023-05-15T00:59:27.964Z,15.67
2023-05-15T01:01:54.595Z,15.73
2023-05-15T01:04:22.124Z,15.76
2023-05-15T01:06:48.998Z,15.76
2023-05-15T01:09:16.344Z,15.75
2023-05-15T01:11:44.573Z,15.74
2023-05-15T01:14:11.034Z,15.75
2023-05-15T01:16:37.594Z,15.76
2023-05-15T01:19:05.196Z,15.72
2023-05-15T01:21:34.541Z,15.72
2023-05-15T01:24:19.587Z,15.71
2023-05-15T01:27:04.723Z,15.72
2023-05-15T01:29:41.291Z,15.69
2023-05-15T01:32:46.183Z,15.69
2023-05-15T01:35:31.199Z,15.69
2023-05-15T01:38:13.019Z,15.69
2023-05-15T01:40:40.007Z,15.58
2023-05-15T01:43:09.817Z,15.65
2023-05-15T01:45:37.315Z,15.67
2023-05-15T01:48:08.265Z,15.64
2023-05-15T01:50:36.967Z,15.64
2023-05-15T01:53:05.219Z,15.61
2023-05-15T01:55:33.166Z,15.62
2023-05-15T01:58:02.046Z,15.59
2023-05-15T02:00:29.817Z,15.55
2023-05-15T02:02:57.686Z,15.55
2023-05-15T02:05:26.408Z,15.49
2023-05-15T02:07:53.730Z,15.57
2023-05-15T02:10:22.061Z,15.52
2023-05-15T02:12:50.161Z,15.42
2023-05-15T02:15:17.461Z,15.46
2023-05-15T02:17:44.064Z,15.46
2023-05-15T02:20:11.810Z,15.40
2023-05-15T02:22:38.368Z,15.35
2023-05-15T02:25:05.396Z,15.40
2023-05-15T02:28:00.148Z,15.40
2023-05-15T02:30:48.924Z,15.37
2023-05-15T02:33:37.680Z,15.21
2023-05-15T02:36:07.974Z,15.29
2023-05-15T02:38:53.872Z,15.24
2023-05-15T02:41:22.476Z,15.21
2023-05-15T02:43:51.031Z,15.13
2023-05-15T02:46:19.600Z,15.04
2023-05-15T02:48:47.733Z,15.08
2023-05-15T02:51:15.247Z,15.07
2023-05-15T02:53:42.384Z,15.04
2023-05-15T02:56:09.647Z,14.99
2023-05-15T02:58:37.043Z,15.02
2023-05-15T03:01:04.584Z,14.96
2023-05-15T03:03:31.222Z,14.95
2023-05-15T03:05:57.919Z,14.94
2023-05-15T03:08:24.455Z,14.91
2023-05-15T03:10:50.972Z,14.84
2023-05-15T03:13:17.739Z,14.82
2023-05-15T03:15:45.614Z,14.79
2023-05-15T03:18:12.400Z,14.72
2023-05-15T03:20:39.043Z,14.71
2023-05-15T03:23:05.558Z,14.53
2023-05-15T03:25:32.020Z,14.55
2023-05-15T03:27:58.490Z,14.53
2023-05-15T03:30:24.957Z,14.43
2023-05-15T03:32:51.704Z,14.35
2023-05-15T03:35:18.257Z,14.19
2023-05-15T03:37:44.731Z,14.15
2023-05-15T03:40:11.961Z,14.05
2023-05-15T03:42:38.465Z,13.92
2023-05-15T03:45:05.521Z,13.79
2023-05-15T03:47:32.135Z,13.67
2023-05-15T03:49:58.634Z,13.62
2023-05-15T03:52:25.371Z,13.52
2023-05-15T03:54:51.922Z,13.39
2023-05-15T03:57:18.545Z,13.40
2023-05-15T03:59:45.108Z,13.32
2023-05-15T04:02:11.632Z,13.32
2023-05-15T04:04:38.676Z,13.26
2023-05-15T04:07:06.230Z,13.07
2023-05-15T04:09:32.729Z,13.22
2023-05-15T04:11:59.214Z,13.14
2023-05-15T04:14:25.713Z,13.07
2023-05-15T04:16:52.225Z,12.99
2023-05-15T04:19:18.970Z,12.93
2023-05-15T04:21:45.569Z,12.88
2023-05-15T04:24:12.195Z,12.85
2023-05-15T04:26:38.829Z,12.75
2023-05-15T04:29:05.989Z,12.79
2023-05-15T04:31:32.652Z,12.77
2023-05-15T04:33:59.416Z,12.70
2023-05-15T04:36:25.936Z,12.68
2023-05-15T04:38:52.530Z,12.66
2023-05-15T04:41:19.043Z,12.59
2023-05-15T04:43:46.268Z,12.49
2023-05-15T04:46:13.054Z,12.55
2023-05-15T04:48:39.594Z,12.54
2023-05-15T04:51:06.077Z,12.51
2023-05-15T04:53:32.532Z,12.45
2023-05-15T04:55:59.097Z,12.37
2023-05-15T04:58:25.684Z,12.30
2023-05-15T05:00:52.245Z,12.30
2023-05-15T05:03:18.756Z,12.28
2023-05-15T05:05:45.275Z,12.29
2023-05-15T05:08:11.798Z,12.28
2023-05-15T05:10:38.324Z,12.25
2023-05-15T05:13:04.822Z,12.24
2023-05-15T05:15:31.364Z,12.22
2023-05-15T05:17:57.919Z,12.21
2023-05-15T05:20:24.501Z,12.20
2023-05-15T05:22:51.030Z,12.24
2023-05-15T05:25:17.764Z,12.20
2023-05-15T05:27:44.262Z,12.17
2023-05-15T05:30:11.203Z,12.20
2023-05-15T05:32:38.283Z,12.18
2023-05-15T05:35:05.757Z,12.15
2023-05-15T05:37:32.384Z,12.19
2023-05-15T05:39:58.888Z,12.23
2023-05-15T05:42:25.384Z,12.08
2023-05-15T05:44:51.890Z,12.10
2023-05-15T05:47:18.402Z,12.20
2023-05-15T05:49:48.048Z,12.15
2023-05-15T05:52:16.007Z,12.10
2023-05-15T05:54:45.741Z,12.21
2023-05-15T05:57:12.291Z,12.30
2023-05-15T05:59:39.016Z,12.29
2023-05-15T06:02:05.857Z,12.34
2023-05-15T06:04:36.021Z,12.26
2023-05-15T06:07:03.278Z,12.33
2023-05-15T06:09:30.016Z,12.18
2023-05-15T06:11:56.862Z,12.30
2023-05-15T06:14:23.356Z,12.29
2023-05-15T06:16:50.241Z,12.28
2023-05-15T06:19:16.977Z,12.31
2023-05-15T06:21:43.549Z,12.28
2023-05-15T06:24:10.025Z,12.28
2023-05-15T06:26:36.545Z,12.28
2023-05-15T06:29:03.097Z,12.27
2023-05-15T06:31:29.618Z,12.31
2023-05-15T06:33:56.237Z,12.33
2023-05-15T06:36:22.758Z,12.28
2023-05-15T06:38:49.264Z,12.36
2023-05-15T06:41:15.944Z,12.39
2023-05-15T06:43:42.395Z,12.42
2023-05-15T06:46:08.926Z,12.43
2023-05-15T06:48:36.369Z,12.55
2023-05-15T06:51:02.932Z,12.48
2023-05-15T06:53:30.070Z,12.43
2023-05-15T06:55:56.565Z,12.41
2023-05-15T06:58:23.248Z,12.42
2023-05-15T07:00:49.741Z,12.46
2023-05-15T07:03:16.772Z,12.45
2023-05-15T07:05:43.596Z,12.46
2023-05-15T07:08:10.107Z,12.51
2023-05-15T07:10:36.688Z,12.65
2023-05-15T07:13:03.182Z,12.64
2023-05-15T07:15:29.702Z,12.68
2023-05-15T07:17:56.395Z,12.85
2023-05-15T07:20:23.500Z,12.89
2023-05-15T07:22:56.286Z,13.05
2023-05-15T07:25:24.669Z,13.03
2023-05-15T07:27:51.590Z,13.03
2023-05-15T07:30:18.798Z,13.09
2023-05-15T07:32:45.419Z,13.22
2023-05-15T07:35:12.015Z,13.23
2023-05-15T07:37:39.005Z,13.19
2023-05-15T07:40:06.468Z,13.21
2023-05-15T07:42:33.483Z,13.23
2023-05-15T07:45:00.037Z,13.18
2023-05-15T07:47:26.566Z,13.19
2023-05-15T07:49:53.028Z,13.22
2023-05-15T07:52:19.808Z,13.35
2023-05-15T07:54:46.294Z,13.41
2023-05-15T07:57:13.059Z,13.52
2023-05-15T07:59:39.731Z,13.64
2023-05-15T08:02:06.995Z,13.73
2023-05-15T08:04:33.821Z,13.82
2023-05-15T08:07:00.705Z,13.83
2023-05-15T08:09:27.231Z,13.91
2023-05-15T08:11:56.230Z,13.93
2023-05-15T08:14:22.773Z,13.71
2023-05-15T08:16:51.351Z,13.82
2023-05-15T08:19:18.036Z,13.83
2023-05-15T08:21:44.625Z,13.87
2023-05-15T08:24:11.101Z,13.82
2023-05-15T08:26:39.026Z,13.80
2023-05-15T08:29:05.625Z,13.77
2023-05-15T08:31:32.187Z,13.81
2023-05-15T08:33:58.700Z,13.79
2023-05-15T08:36:25.390Z,13.90
2023-05-15T08:38:52.009Z,13.87
2023-05-15T08:42:00.607Z,14.01
2023-05-15T08:44:28.087Z,14.11
2023-05-15T08:46:55.336Z,14.23
2023-05-15T08:49:34.064Z,14.35
2023-05-15T08:52:00.903Z,14.32
2023-05-15T08:54:28.280Z,14.34
2023-05-15T08:56:54.832Z,14.44
2023-05-15T08:59:22.359Z,14.57
2023-05-15T09:01:49.831Z,14.56
2023-05-15T09:04:16.542Z,14.52
2023-05-15T09:06:44.435Z,14.52
2023-05-15T09:09:13.524Z,14.46
2023-05-15T09:11:45.542Z,14.45
2023-05-15T09:14:12.351Z,14.47
2023-05-15T09:16:39.211Z,14.50
2023-05-15T09:19:06.951Z,14.65
2023-05-15T09:21:33.977Z,14.83
2023-05-15T09:24:16.208Z,14.97
2023-05-15T09:26:43.304Z,15.14
2023-05-15T09:29:10.082Z,15.24
2023-05-15T09:31:36.773Z,15.35
2023-05-15T09:34:05.792Z,15.54
2023-05-15T09:36:32.764Z,15.75
2023-05-15T09:39:01.014Z,15.83
2023-05-15T09:41:28.850Z,15.79
2023-05-15T09:43:56.887Z,15.79
2023-05-15T09:46:24.235Z,15.84
2023-05-15T09:48:55.461Z,15.80
2023-05-15T09:51:22.286Z,15.77
2023-05-15T09:53:52.720Z,15.95
2023-05-15T09:56:19.496Z,16.23
2023-05-15T09:58:54.050Z,16.28
2023-05-15T10:01:21.648Z,16.52
2023-05-15T10:04:17.581Z,16.68
2023-05-15T10:06:47.170Z,16.85
2023-05-15T10:09:14.793Z,16.87
2023-05-15T10:11:43.506Z,16.97
2023-05-15T10:14:12.070Z,17.05
2023-05-15T10:16:39.803Z,17.18
2023-05-15T10:19:10.871Z,17.35
2023-05-15T10:21:41.665Z,17.53
2023-05-15T10:24:09.029Z,17.62
2023-05-15T10:26:40.790Z,17.81
2023-05-15T10:29:10.407Z,17.86
2023-05-15T10:31:37.318Z,17.73
2023-05-15T10:34:05.165Z,17.76
2023-05-15T10:36:36.486Z,18.01
2023-05-15T10:39:05.824Z,18.00
2023-05-15T10:41:36.050Z,18.05
2023-05-15T10:44:03.195Z,18.28
2023-05-15T10:46:33.251Z,18.36
2023-05-15T10:49:01.719Z,18.59
2023-05-15T10:51:30.038Z,18.73
2023-05-15T10:53:57.307Z,18.68
2023-05-15T10:56:31.984Z,18.94
2023-05-15T10:59:07.183Z,19.06
2023-05-15T11:01:39.246Z,19.19
2023-05-15T11:04:06.659Z,19.22
2023-05-15T11:06:33.922Z,19.10
2023-05-15T11:09:22.690Z,18.90
2023-05-15T11:11:52.455Z,19.12
2023-05-15T11:14:20.093Z,19.26
2023-05-15T11:16:52.818Z,19.37
2023-05-15T11:19:24.387Z,19.44
2023-05-15T11:22:01.282Z,19.57
2023-05-15T11:24:31.414Z,19.70
2023-05-15T11:27:03.036Z,19.44
2023-05-15T11:29:29.817Z,19.31
2023-05-15T11:31:56.377Z,19.31
2023-05-15T11:34:35.371Z,18.84
2023-05-15T11:37:01.940Z,18.73
2023-05-15T11:39:28.830Z,18.74
2023-05-15T11:41:56.200Z,19.07
2023-05-15T11:44:24.518Z,19.32
2023-05-15T11:46:51.495Z,19.60
2023-05-15T11:49:19.798Z,19.72
2023-05-15T11:51:48.458Z,19.58
2023-05-15T11:54:15.239Z,19.85
2023-05-15T11:56:44.526Z,19.93
2023-05-15T11:59:17.624Z,19.68
2023-05-15T12:01:49.965Z,19.65
2023-05-15T12:04:21.437Z,19.89
2023-05-15T12:06:49.466Z,19.94
2023-05-15T12:09:19.444Z,20.07
2023-05-15T12:11:53.950Z,20.25
2023-05-15T12:14:30.853Z,20.32
2023-05-15T12:17:07.078Z,20.34
2023-05-15T12:19:34.940Z,20.54
2023-05-15T12:22:04.216Z,20.65
2023-05-15T12:24:30.799Z,20.68
2023-05-15T12:26:57.743Z,20.68
2023-05-15T12:29:26.515Z,20.66
2023-05-15T12:31:53.986Z,20.83
2023-05-15T12:34:21.590Z,20.90
2023-05-15T12:36:48.234Z,20.81
2023-05-15T12:39:14.805Z,20.70
2023-05-15T12:41:41.710Z,20.72
2023-05-15T12:44:17.085Z,20.59
2023-05-15T12:46:43.683Z,20.28
2023-05-15T12:49:10.713Z,20.07
2023-05-15T12:51:43.172Z,20.02
2023-05-15T12:54:20.512Z,19.74
2023-05-15T12:56:48.066Z,19.52
2023-05-15T12:59:14.730Z,19.29
2023-05-15T13:01:44.747Z,19.24
2023-05-15T13:04:11.716Z,19.35
2023-05-15T13:06:46.247Z,19.65
2023-05-15T13:09:14.217Z,19.88
2023-05-15T13:11:45.257Z,19.89
2023-05-15T13:14:17.131Z,19.65
2023-05-15T13:16:46.809Z,19.29
2023-05-15T13:19:13.899Z,19.26
2023-05-15T13:21:40.928Z,19.12
2023-05-15T13:24:09.912Z,19.16
2023-05-15T13:26:36.769Z,19.45
2023-05-15T13:29:03.422Z,19.82
2023-05-15T13:31:31.884Z,20.04
2023-05-15T13:34:00.836Z,20.17
2023-05-15T13:36:27.464Z,20.05
2023-05-15T13:38:53.938Z,19.85
2023-05-15T13:41:21.131Z,19.61
2023-05-15T13:43:49.258Z,19.24
2023-05-15T13:46:16.278Z,19.11
2023-05-15T13:48:42.871Z,19.41
2023-05-15T13:51:11.515Z,19.54
2023-05-15T13:53:38.326Z,19.72
2023-05-15T13:56:05.077Z,19.60
2023-05-15T13:58:31.648Z,19.60
2023-05-15T14:00:58.144Z,19.84
2023-05-15T14:03:24.734Z,20.18
2023-05-15T14:05:51.844Z,20.21
2023-05-15T14:08:18.503Z,20.04
2023-05-15T14:10:44.986Z,19.88
2023-05-15T14:13:11.485Z,19.58
2023-05-15T14:15:40.050Z,19.34
2023-05-15T14:18:06.984Z,19.23
2023-05-15T14:20:33.604Z,19.34
2023-05-15T14:23:00.084Z,19.37
2023-05-15T14:25:26.660Z,19.38
2023-05-15T14:27:53.173Z,19.49
2023-05-15T14:30:22.204Z,19.33
2023-05-15T14:32:48.927Z,19.59
2023-05-15T14:35:15.594Z,19.74
2023-05-15T14:37:43.281Z,19.58
2023-05-15T14:40:10.606Z,19.80
2023-05-15T14:42:41.840Z,20.11
2023-05-15T14:45:08.936Z,20.22
2023-05-15T14:47:35.474Z,19.93
2023-05-15T14:50:02.476Z,19.66
2023-05-15T14:52:29.057Z,19.50
2023-05-15T14:55:07.748Z,19.26
2023-05-15T14:57:35.759Z,19.21
2023-05-15T15:00:02.419Z,19.20
2023-05-15T15:02:29.160Z,19.64
2023-05-15T15:04:55.763Z,20.16
2023-05-15T15:07:22.395Z,20.10
2023-05-15T15:09:48.892Z,19.76
2023-05-15T15:12:15.498Z,19.53
2023-05-15T15:14:41.998Z,19.20
2023-05-15T15:17:08.457Z,18.93
2023-05-15T15:19:35.027Z,18.66
2023-05-15T15:22:01.607Z,18.61
2023-05-15T15:24:29.154Z,18.61
2023-05-15T15:26:55.730Z,18.55
2023-05-15T15:29:22.249Z,19.04
2023-05-15T15:31:48.748Z,19.62
2023-05-15T15:34:16.030Z,20.08
2023-05-15T15:36:43.659Z,20.32
2023-05-15T15:39:13.235Z,20.43
2023-05-15T15:41:39.920Z,20.07
2023-05-15T15:44:06.545Z,19.88
2023-05-15T15:49:17.985Z,19.52
2023-05-15T15:51:51.810Z,19.54
2023-05-15T15:54:20.585Z,19.30
2023-05-15T15:56:47.981Z,19.17
2023-05-15T15:59:15.840Z,19.58
2023-05-15T16:04:26.722Z,20.27
2023-05-15T16:06:53.266Z,20.02
2023-05-15T16:09:21.360Z,19.95
2023-05-15T16:11:50.427Z,19.58
2023-05-15T16:14:18.772Z,19.31
2023-05-15T16:16:45.869Z,19.24
2023-05-15T16:19:13.789Z,18.93
2023-05-15T16:21:43.405Z,18.74
2023-05-15T16:24:10.022Z,18.49
2023-05-15T16:26:38.011Z,18.59
2023-05-15T16:29:04.677Z,18.67
2023-05-15T16:31:31.606Z,18.88
2023-05-15T16:34:03.695Z,19.20
2023-05-15T16:36:31.359Z,19.40
2023-05-15T16:41:33.119Z,19.65
2023-05-15T16:43:59.595Z,19.97
2023-05-15T16:46:26.980Z,20.17
2023-05-15T16:48:53.585Z,20.15
2023-05-15T16:51:20.350Z,20.25
2023-05-15T16:53:47.139Z,20.25
2023-05-15T16:58:55.759Z,19.79
2023-05-15T17:01:22.386Z,19.72
2023-05-15T17:03:50.010Z,19.49
2023-05-15T17:06:17.148Z,19.36
2023-05-15T17:08:45.306Z,19.10
2023-05-15T17:11:13.295Z,19.02
2023-05-15T17:13:40.149Z,18.95
2023-05-15T17:16:06.866Z,18.88
2023-05-15T17:18:33.467Z,18.75
2023-05-15T17:20:59.987Z,18.64
2023-05-15T17:23:26.534Z,18.61
2023-05-15T17:25:53.104Z,18.56
2023-05-15T17:28:19.640Z,18.51
2023-05-15T17:30:46.107Z,18.53
2023-05-15T17:33:12.595Z,18.41
2023-05-15T17:35:39.109Z,18.36
2023-05-15T17:38:05.630Z,18.28
2023-05-15T17:40:32.155Z,18.37
2023-05-15T17:42:58.794Z,18.28
2023-05-15T17:45:27.082Z,18.28
2023-05-15T17:47:54.065Z,18.17
2023-05-15T17:50:20.703Z,18.05
2023-05-15T17:52:47.228Z,18.11
2023-05-15T17:55:13.883Z,17.88
2023-05-15T17:57:40.391Z,17.85
2023-05-15T18:00:07.701Z,17.87
2023-05-15T18:02:36.741Z,17.69
2023-05-15T18:05:03.473Z,17.74
2023-05-15T18:07:29.962Z,17.66
2023-05-15T18:09:56.434Z,17.61
2023-05-15T18:12:22.935Z,17.56
2023-05-15T18:14:49.521Z,17.44
2023-05-15T18:17:16.646Z,17.46
2023-05-15T18:19:44.789Z,17.35
2023-05-15T18:22:11.658Z,17.23
2023-05-15T18:24:38.144Z,17.32
2023-05-15T18:27:04.958Z,17.18
2023-05-15T18:29:31.590Z,17.17
2023-05-15T18:31:58.413Z,17.12
2023-05-15T18:34:25.003Z,16.97
2023-05-15T18:36:52.089Z,16.99
2023-05-15T18:39:19.104Z,16.92
2023-05-15T18:41:45.903Z,16.81
2023-05-15T18:44:12.511Z,16.78
2023-05-15T18:46:39.070Z,16.75
2023-05-15T18:49:05.600Z,16.72
2023-05-15T18:51:32.292Z,16.45
2023-05-15T18:53:58.773Z,16.45
2023-05-15T18:56:25.308Z,16.46
2023-05-15T18:58:51.830Z,16.47
2023-05-15T19:01:18.577Z,16.36
2023-05-15T19:03:45.293Z,16.37
2023-05-15T19:06:13.363Z,16.23
2023-05-15T19:08:39.866Z,16.21
2023-05-15T19:11:06.913Z,16.17
2023-05-15T19:13:34.302Z,16.02
2023-05-15T19:16:00.903Z,16.04
2023-05-15T19:18:27.393Z,15.91
2023-05-15T19:20:54.334Z,15.76
2023-05-15T19:23:20.925Z,15.65
2023-05-15T19:25:47.662Z,15.55
2023-05-15T19:28:14.891Z,15.46
2023-05-15T19:30:42.045Z,15.36
2023-05-15T19:33:08.628Z,15.16
2023-05-15T19:35:37.337Z,15.27
2023-05-15T19:38:04.421Z,15.16
2023-05-15T19:40:30.958Z,15.03
2023-05-15T19:42:57.433Z,15.06
2023-05-15T19:45:24.038Z,14.98
2023-05-15T19:47:50.855Z,14.74
2023-05-15T19:50:18.287Z,14.70
2023-05-15T19:52:45.631Z,14.62
2023-05-15T19:55:12.562Z,14.70
2023-05-15T19:57:44.424Z,14.69
2023-05-15T20:00:12.371Z,14.60
2023-05-15T20:02:41.280Z,14.41
2023-05-15T20:05:08.321Z,14.49
2023-05-15T20:07:35.760Z,14.30
2023-05-15T20:10:02.455Z,14.40
2023-05-15T20:12:28.930Z,14.28
2023-05-15T20:14:55.527Z,14.15
2023-05-15T20:17:23.322Z,14.17
2023-05-15T20:19:50.452Z,14.07
2023-05-15T20:22:17.438Z,14.01
2023-05-15T20:24:44.918Z,13.91
2023-05-15T20:27:12.109Z,13.84
2023-05-15T20:29:39.674Z,13.72
2023-05-15T20:32:06.490Z,13.75
2023-05-15T20:34:34.514Z,13.67
2023-05-15T20:37:02.616Z,13.60
2023-05-15T20:39:29.091Z,13.56
2023-05-15T20:41:56.497Z,13.42
2023-05-15T20:44:22.996Z,13.46
2023-05-15T20:46:49.629Z,13.39
2023-05-15T20:49:16.316Z,13.13
2023-05-15T20:51:44.469Z,13.28
2023-05-15T20:54:11.528Z,13.26
2023-05-15T20:56:38.147Z,13.15
2023-05-15T20:59:04.838Z,13.03
2023-05-15T21:01:31.590Z,13.04
2023-05-15T21:03:58.274Z,13.01
2023-05-15T21:06:24.908Z,12.97
2023-05-15T21:08:51.457Z,12.75
2023-05-15T21:11:18.021Z,12.68
2023-05-15T21:13:44.497Z,12.73
2023-05-15T21:16:11.033Z,12.73
2023-05-15T21:18:38.927Z,12.58
2023-05-15T21:21:08.263Z,12.67
2023-05-15T21:23:36.549Z,12.62
2023-05-15T21:26:04.099Z,12.58
2023-05-15T21:28:30.857Z,12.57
2023-05-15T21:30:57.453Z,12.41
2023-05-15T21:33:24.013Z,12.49
2023-05-15T21:35:51.497Z,12.51
2023-05-15T21:38:18.365Z,12.45
2023-05-15T21:40:44.942Z,12.41
2023-05-15T21:43:11.440Z,12.39
2023-05-15T21:45:37.911Z,12.29
2023-05-15T21:48:04.625Z,12.29
2023-05-15T21:50:31.153Z,12.18
2023-05-15T21:52:57.752Z,12.21
2023-05-15T21:55:25.048Z,12.24
2023-05-15T21:57:51.519Z,12.30
2023-05-15T22:00:18.379Z,12.24
2023-05-15T22:02:45.083Z,12.29
2023-05-15T22:05:11.741Z,12.28
2023-05-15T22:07:38.404Z,12.21
2023-05-15T22:10:05.466Z,12.22
2023-05-15T22:12:32.258Z,12.13
2023-05-15T22:14:59.840Z,12.27
2023-05-15T22:17:29.198Z,12.29
2023-05-15T22:20:06.479Z,12.26
2023-05-15T22:22:34.101Z,12.21
2023-05-15T22:25:00.904Z,12.23
2023-05-15T22:27:27.741Z,12.27
2023-05-15T22:29:54.909Z,12.41
2023-05-15T22:32:21.514Z,12.41
2023-05-15T22:34:48.015Z,12.41
2023-05-15T22:37:15.085Z,12.47
2023-05-15T22:39:41.685Z,12.46
2023-05-15T22:42:08.658Z,12.48
2023-05-15T22:44:35.262Z,12.49
2023-05-15T22:47:02.221Z,12.53
2023-05-15T22:49:28.699Z,12.56
2023-05-15T22:51:56.705Z,12.62
2023-05-15T22:54:51.197Z,12.65
2023-05-15T22:57:17.933Z,12.62
2023-05-15T22:59:44.600Z,12.65
2023-05-15T23:02:11.163Z,12.61
2023-05-15T23:04:37.648Z,12.64
2023-05-15T23:07:04.479Z,12.63
2023-05-15T23:09:31.130Z,12.41
2023-05-15T23:11:57.631Z,12.54
2023-05-15T23:14:24.291Z,12.57
2023-05-15T23:16:50.859Z,12.44
2023-05-15T23:19:17.456Z,12.41
2023-05-15T23:21:44.000Z,12.46
2023-05-15T23:24:10.593Z,12.22
2023-05-15T23:26:37.055Z,12.38
2023-05-15T23:29:03.798Z,12.31
2023-05-15T23:31:30.413Z,12.29
2023-05-15T23:33:56.970Z,12.12
2023-05-15T23:36:23.458Z,12.14
2023-05-15T23:38:49.933Z,12.15
2023-05-15T23:41:16.770Z,12.11
2023-05-15T23:43:43.283Z,11.97
2023-05-15T23:46:09.806Z,11.84
2023-05-15T23:48:36.309Z,11.79
2023-05-15T23:51:03.467Z,11.80
2023-05-15T23:53:29.941Z,11.69
2023-05-15T23:55:56.453Z,11.51
2023-05-15T23:58:23.607Z,11.58
